Time;durP1;ratioP1;P1;durP2;ratioP2;P2;SDS_P1;SDS_P2;PMS_P1;PMS_P2;Temp;Humidity;BMP_temperature;BMP_pressure;BME280_temperature;BME280_humidity;BME280_pressure;Samples;Min_cycle;Max_cycle;Signal;HPM_P1;HPM_P2
2022/04/07 00:00:18;;;;;;;;;;;;;;;8.51;100.00;99281.16;5036548;28;19920;-69
2022/04/07 00:02:43;;;;;;;;;;;;;;;8.63;100.00;99273.63;5027625;28;19917;-69
2022/04/07 00:05:09;;;;;;;;;;;;;;;8.65;100.00;99255.69;5026530;28;20266;-68
2022/04/07 00:07:34;;;;;;;;;;;;;;;8.46;100.00;99237.56;5031687;28;20290;-70
2022/04/07 00:09:59;;;;;;;;;;;;;;;8.31;100.00;99245.94;5037535;28;19924;-69
2022/04/07 00:12:25;;;;;;;;;;;;;;;8.23;100.00;99252.63;5032743;28;19984;-70
2022/04/07 00:14:50;;;;;;;;;;;;;;;8.27;100.00;99233.06;5033102;28;20028;-69
2022/04/07 00:17:15;;;;;;;;;;;;;;;8.10;100.00;99240.53;5027919;28;19976;-70
2022/04/07 00:19:40;;;;;;;;;;;;;;;8.18;100.00;99230.38;5033433;28;19928;-70
2022/04/07 00:22:06;;;;;;;;;;;;;;;8.15;100.00;99244.03;5034554;28;19921;-69
2022/04/07 00:24:31;;;;;;;;;;;;;;;8.01;100.00;99231.06;5025253;28;19932;-69
2022/04/07 00:26:56;;;;;;;;;;;;;;;8.08;100.00;99221.75;5030793;28;20375;-70
2022/04/07 00:29:21;;;;;;;;;;;;;;;8.03;100.00;99210.59;5029637;28;19917;-69
2022/04/07 00:31:55;;;;;;;;;;;;;;;7.95;100.00;99209.66;5028133;28;20406;-69
2022/04/07 00:34:20;;;;;;;;;;;;;;;8.06;100.00;99205.50;5029155;28;19933;-69
2022/04/07 00:36:46;;;;;;;;;;;;;;;7.95;100.00;99195.16;5032687;28;19966;-69
2022/04/07 00:39:11;;;;;;;;;;;;;;;7.98;100.00;99187.50;5030463;28;19925;-69
2022/04/07 00:41:38;;;;;;;;;;;;;;;8.13;100.00;99193.63;5034663;28;20015;-69
2022/04/07 00:44:05;;;;;;;;;;;;;;;7.95;100.00;99178.94;5006141;28;19929;-69
2022/04/07 00:46:30;;;;;;;;;;;;;;;7.93;100.00;99176.34;5035106;28;19971;-69
2022/04/07 00:48:56;;;;;;;;;;;;;;;7.93;100.00;99176.34;5033351;28;19928;-69
2022/04/07 00:51:21;;;;;;;;;;;;;;;7.93;100.00;99158.44;5030360;28;20396;-69
2022/04/07 00:53:46;;;;;;;;;;;;;;;7.84;100.00;99157.47;5028263;28;20277;-69
2022/04/07 00:56:12;;;;;;;;;;;;;;;7.91;100.00;99156.69;5031651;28;19929;-69
2022/04/07 00:58:37;;;;;;;;;;;;;;;7.91;100.00;99165.25;5030842;28;20012;-70
2022/04/07 01:01:03;;;;;;;;;;;;;;;8.06;100.00;99165.41;5030283;28;19928;-69
2022/04/07 01:03:28;;;;;;;;;;;;;;;7.88;100.00;99152.38;5029734;28;19971;-69
2022/04/07 01:05:53;;;;;;;;;;;;;;;7.97;100.00;99156.78;5029560;28;20011;-68
2022/04/07 01:08:18;;;;;;;;;;;;;;;7.85;100.00;99152.38;5020152;28;19927;-69
2022/04/07 01:10:45;;;;;;;;;;;;;;;7.85;100.00;99134.47;5029871;28;19975;-69
2022/04/07 01:13:11;;;;;;;;;;;;;;;7.82;100.00;99126.72;5025937;28;20396;-69
2022/04/07 01:15:37;;;;;;;;;;;;;;;7.91;100.00;99142.22;5023939;28;19929;-69
2022/04/07 01:18:02;;;;;;;;;;;;;;;7.91;100.00;99134.53;5029756;28;20094;-69
2022/04/07 01:20:28;;;;;;;;;;;;;;;7.79;100.00;99130.13;5030196;28;19953;-69
2022/04/07 01:22:53;;;;;;;;;;;;;;;7.92;100.00;99123.44;5027991;28;20012;-69
2022/04/07 01:25:18;;;;;;;;;;;;;;;7.89;100.00;99117.44;5026986;28;20422;-69
2022/04/07 01:27:48;;;;;;;;;;;;;;;8.06;100.00;99110.78;5025990;28;20377;-69
2022/04/07 01:30:14;;;;;;;;;;;;;;;8.01;100.00;99108.19;5031420;28;19971;-69
2022/04/07 01:32:41;;;;;;;;;;;;;;;7.95;100.00;99103.03;5031446;28;20403;-69
2022/04/07 01:35:06;;;;;;;;;;;;;;;7.85;100.00;99106.31;5029400;28;19952;-69
2022/04/07 01:37:33;;;;;;;;;;;;;;;7.86;100.00;99097.78;5026900;28;19984;-69
2022/04/07 01:39:59;;;;;;;;;;;;;;;7.75;100.00;99092.53;5028933;28;20019;-69
2022/04/07 01:42:25;;;;;;;;;;;;;;;7.80;100.00;99090.91;5031762;28;19956;-69
2022/04/07 01:44:52;;;;;;;;;;;;;;;7.73;100.00;99075.47;5028225;28;20373;-69
2022/04/07 01:47:20;;;;;;;;;;;;;;;7.84;100.00;99070.47;5025572;28;20475;-69
2022/04/07 01:49:46;;;;;;;;;;;;;;;7.84;100.00;99073.91;5029171;28;19917;-69
2022/04/07 01:52:15;;;;;;;;;;;;;;;7.84;100.00;99063.66;5026704;28;19936;-69
2022/04/07 01:54:43;;;;;;;;;;;;;;;7.90;100.00;99063.72;5030461;28;19927;-70
2022/04/07 01:57:09;;;;;;;;;;;;;;;7.83;100.00;99067.06;5033460;28;20396;-69
2022/04/07 01:59:35;;;;;;;;;;;;;;;7.96;100.00;99056.09;5027027;28;20010;-69
2022/04/07 02:02:00;;;;;;;;;;;;;;;7.99;100.00;99040.75;5028287;28;20435;-68
2022/04/07 02:04:25;;;;;;;;;;;;;;;7.87;100.00;99037.22;5031125;28;20696;-69
2022/04/07 02:06:51;;;;;;;;;;;;;;;7.94;100.00;99034.72;5027329;28;19952;-68
2022/04/07 02:09:16;;;;;;;;;;;;;;;7.98;100.00;99036.50;5056046;28;19925;-69
2022/04/07 02:11:44;;;;;;;;;;;;;;;8.03;100.00;99032.28;5026302;28;19925;-68
2022/04/07 02:14:09;;;;;;;;;;;;;;;8.17;100.00;99047.75;5030527;28;20327;-69
2022/04/07 02:16:34;;;;;;;;;;;;;;;8.19;100.00;99037.50;5026465;28;19925;-69
2022/04/07 02:19:00;;;;;;;;;;;;;;;8.02;100.00;99019.47;5028010;28;19960;-68
2022/04/07 02:21:25;;;;;;;;;;;;;;;7.99;100.00;99015.16;5025518;28;19917;-69
2022/04/07 02:23:51;;;;;;;;;;;;;;;7.96;100.00;99007.47;5030130;28;19925;-68
2022/04/07 02:26:17;;;;;;;;;;;;;;;7.91;100.00;99011.69;5029753;28;19921;-69
2022/04/07 02:28:43;;;;;;;;;;;;;;;8.20;100.00;99023.88;5028933;28;19928;-69
2022/04/07 02:31:08;;;;;;;;;;;;;;;8.07;100.00;99011.00;5030796;28;19925;-69
2022/04/07 02:33:34;;;;;;;;;;;;;;;7.99;100.00;99009.19;5020867;28;20345;-69
2022/04/07 02:36:03;;;;;;;;;;;;;;;8.18;100.00;98997.41;5025234;28;20419;-69
2022/04/07 02:38:28;;;;;;;;;;;;;;;8.28;100.00;98999.19;5028323;28;19948;-69
2022/04/07 02:40:54;;;;;;;;;;;;;;;8.16;100.00;98989.72;5031252;28;19917;-69
2022/04/07 02:43:19;;;;;;;;;;;;;;;8.11;100.00;99003.31;5057086;28;19927;-68
2022/04/07 02:45:44;;;;;;;;;;;;;;;8.19;100.00;98991.44;5029597;28;19924;-69
2022/04/07 02:48:10;;;;;;;;;;;;;;;8.18;99.75;98987.16;5035305;28;20392;-69
2022/04/07 02:50:35;;;;;;;;;;;;;;;8.18;100.00;98969.22;5031374;28;19995;-69
2022/04/07 02:53:00;;;;;;;;;;;;;;;8.17;100.00;98978.63;5030687;28;19921;-69
2022/04/07 02:55:27;;;;;;;;;;;;;;;8.37;99.35;98955.75;5031535;28;19921;-69
2022/04/07 02:57:52;;;;;;;;;;;;;;;8.39;98.62;98951.50;5032155;28;20009;-69
2022/04/07 03:00:18;;;;;;;;;;;;;;;8.38;98.88;98947.22;5032448;28;20548;-69
2022/04/07 03:02:43;;;;;;;;;;;;;;;8.39;98.15;98936.13;5029621;28;19975;-69
2022/04/07 03:05:08;;;;;;;;;;;;;;;8.41;97.71;98938.69;5033975;28;19970;-69
2022/04/07 03:07:34;;;;;;;;;;;;;;;8.53;96.79;98931.09;5032302;28;19928;-69
2022/04/07 03:10:00;;;;;;;;;;;;;;;8.64;95.86;98926.03;5030752;28;19917;-69
2022/04/07 03:12:25;;;;;;;;;;;;;;;8.65;96.18;98913.22;5035668;28;19929;-70
2022/04/07 03:14:50;;;;;;;;;;;;;;;8.70;95.87;98915.81;5030885;28;19978;-69
2022/04/07 03:17:16;;;;;;;;;;;;;;;8.77;95.07;98912.41;5040066;28;19925;-69
2022/04/07 03:19:41;;;;;;;;;;;;;;;8.66;95.12;98893.56;5032497;28;19932;-69
2022/04/07 03:22:06;;;;;;;;;;;;;;;8.76;95.00;98895.31;5029142;28;20405;-69
2022/04/07 03:24:31;;;;;;;;;;;;;;;8.76;94.73;98890.19;5029788;28;19944;-69
2022/04/07 03:26:57;;;;;;;;;;;;;;;8.83;93.84;98891.94;5028287;28;19928;-69
2022/04/07 03:29:22;;;;;;;;;;;;;;;8.78;93.69;98873.97;5030713;28;20374;-69
2022/04/07 03:31:48;;;;;;;;;;;;;;;8.90;92.78;98883.41;5027508;28;20335;-69
2022/04/07 03:34:13;;;;;;;;;;;;;;;8.92;92.59;98881.72;5031443;28;20450;-69
2022/04/07 03:36:39;;;;;;;;;;;;;;;8.90;92.70;98872.31;5034453;28;19928;-69
2022/04/07 03:39:04;;;;;;;;;;;;;;;8.91;92.64;98866.31;5031365;28;19948;-70
2022/04/07 03:41:29;;;;;;;;;;;;;;;8.83;93.19;98846.66;5034696;28;19921;-69
2022/04/07 03:43:55;;;;;;;;;;;;;;;9.03;91.34;98872.31;5030836;28;19924;-70
2022/04/07 03:46:21;;;;;;;;;;;;;;;8.96;91.68;98856.94;5030516;28;19925;-69
2022/04/07 03:48:48;;;;;;;;;;;;;;;8.88;92.08;98851.81;5031354;28;20967;-69
2022/04/07 03:51:13;;;;;;;;;;;;;;;8.94;91.42;98850.97;5029177;28;19929;-69
2022/04/07 03:53:38;;;;;;;;;;;;;;;8.94;91.77;98851.81;5031467;28;20067;-69
2022/04/07 03:56:04;;;;;;;;;;;;;;;8.92;92.21;98843.28;5035152;28;20018;-68
2022/04/07 03:58:30;;;;;;;;;;;;;;;8.79;92.46;98838.94;5027783;28;19928;-69
2022/04/07 04:00:56;;;;;;;;;;;;;;;8.57;94.58;98830.34;5031148;28;20253;-69
2022/04/07 04:03:21;;;;;;;;;;;;;;;8.64;94.28;98813.28;5031408;28;19927;-69
2022/04/07 04:05:46;;;;;;;;;;;;;;;8.41;95.68;98811.50;5028612;28;20304;-69
2022/04/07 04:08:11;;;;;;;;;;;;;;;8.40;95.88;98812.34;5034079;28;19968;-69
2022/04/07 04:10:37;;;;;;;;;;;;;;;8.25;96.39;98790.09;5028394;28;19933;-69
2022/04/07 04:13:02;;;;;;;;;;;;;;;8.29;96.18;98771.31;5027715;28;20405;-69
2022/04/07 04:15:27;;;;;;;;;;;;;;;8.41;94.90;98772.22;5030755;28;19947;-69
2022/04/07 04:17:53;;;;;;;;;;;;;;;8.31;95.80;98749.13;5044040;28;20388;-68
2022/04/07 04:20:18;;;;;;;;;;;;;;;8.38;95.63;98744.06;5029541;28;19972;-68
2022/04/07 04:22:43;;;;;;;;;;;;;;;8.51;94.27;98715.91;5026977;28;19956;-68
2022/04/07 04:25:09;;;;;;;;;;;;;;;8.53;94.31;98703.09;5028469;28;19916;-69
2022/04/07 04:27:34;;;;;;;;;;;;;;;8.69;92.72;98719.38;5029164;28;19924;-67
2022/04/07 04:30:00;;;;;;;;;;;;;;;8.64;93.47;98733.88;5029483;28;20409;-68
2022/04/07 04:32:25;;;;;;;;;;;;;;;8.72;92.62;98711.66;5027032;28;19921;-68
2022/04/07 04:34:50;;;;;;;;;;;;;;;8.83;91.45;98704.84;5028008;28;20377;-68
2022/04/07 04:37:15;;;;;;;;;;;;;;;8.75;92.24;98694.59;5027089;28;19924;-69
2022/04/07 04:39:41;;;;;;;;;;;;;;;8.86;90.43;98689.50;5027731;28;19933;-69
2022/04/07 04:42:06;;;;;;;;;;;;;;;8.84;91.13;98683.50;5029942;28;20388;-69
2022/04/07 04:44:32;;;;;;;;;;;;;;;8.99;89.70;98688.63;5029174;28;19921;-68
2022/04/07 04:46:57;;;;;;;;;;;;;;;8.98;90.24;98684.38;5033901;28;20386;-68
2022/04/07 04:49:22;;;;;;;;;;;;;;;8.94;90.91;98653.59;5029773;28;19921;-68
2022/04/07 04:51:47;;;;;;;;;;;;;;;8.82;91.17;98657.88;5030312;28;19917;-69
2022/04/07 04:54:13;;;;;;;;;;;;;;;8.79;92.02;98654.44;5026822;28;20016;-68
2022/04/07 04:56:38;;;;;;;;;;;;;;;8.51;94.00;98657.00;5029316;28;20355;-68
2022/04/07 04:59:04;;;;;;;;;;;;;;;8.51;94.71;98646.75;5028690;28;20439;-68
2022/04/07 05:01:29;;;;;;;;;;;;;;;8.40;96.00;98643.34;5029952;28;20492;-68
2022/04/07 05:03:54;;;;;;;;;;;;;;;8.63;94.98;98616.88;5031795;28;19944;-69
2022/04/07 05:06:19;;;;;;;;;;;;;;;8.47;95.42;98606.63;5031518;28;19975;-68
2022/04/07 05:08:45;;;;;;;;;;;;;;;8.51;95.56;98592.13;5049435;28;19929;-69
2022/04/07 05:11:10;;;;;;;;;;;;;;;8.46;97.03;98604.91;5006890;28;19928;-69
2022/04/07 05:13:35;;;;;;;;;;;;;;;8.53;96.33;98605.78;5025466;28;20210;-68
2022/04/07 05:16:00;;;;;;;;;;;;;;;8.62;96.59;98602.38;5024673;28;19928;-69
2022/04/07 05:18:26;;;;;;;;;;;;;;;8.65;96.27;98610.03;5026033;28;19922;-69
2022/04/07 05:20:51;;;;;;;;;;;;;;;8.56;97.61;98591.28;5033563;28;19935;-70
2022/04/07 05:23:16;;;;;;;;;;;;;;;8.85;95.38;98587.81;5028678;28;19931;-69
2022/04/07 05:25:41;;;;;;;;;;;;;;;8.81;95.99;98575.88;5045027;28;20020;-69
2022/04/07 05:28:07;;;;;;;;;;;;;;;8.75;96.62;98569.06;5026988;28;19920;-69
2022/04/07 05:30:32;;;;;;;;;;;;;;;8.72;96.99;98552.81;5027619;28;19924;-69
2022/04/07 05:32:57;;;;;;;;;;;;;;;8.53;98.69;98551.97;5030171;28;19929;-68
2022/04/07 05:35:26;;;;;;;;;;;;;;;8.49;98.94;98553.72;5029044;28;19921;-69
2022/04/07 05:37:56;;;;;;;;;;;;;;;8.45;100.00;98546.88;5025544;28;19920;-69
2022/04/07 05:40:21;;;;;;;;;;;;;;;8.39;100.00;98556.28;5028934;28;21994;-69
2022/04/07 05:42:47;;;;;;;;;;;;;;;8.40;100.00;98547.72;5025824;28;19929;-69
2022/04/07 05:45:12;;;;;;;;;;;;;;;8.26;100.00;98532.34;5030426;28;19992;-69
2022/04/07 05:47:38;;;;;;;;;;;;;;;8.38;100.00;98529.81;5027515;28;19928;-70
2022/04/07 05:50:03;;;;;;;;;;;;;;;8.25;100.00;98533.16;5026688;28;19917;-68
2022/04/07 05:52:28;;;;;;;;;;;;;;;8.39;100.00;98505.91;5028633;28;19990;-67
2022/04/07 05:54:54;;;;;;;;;;;;;;;8.18;100.00;98508.44;5028753;28;20041;-67
2022/04/07 05:57:21;;;;;;;;;;;;;;;8.36;100.00;98494.78;5031037;28;20841;-67
2022/04/07 05:59:46;;;;;;;;;;;;;;;8.18;100.00;98496.47;5022443;28;19925;-67
2022/04/07 06:02:14;;;;;;;;;;;;;;;8.21;100.00;98483.69;5027719;28;19986;-69
2022/04/07 06:04:41;;;;;;;;;;;;;;;8.15;100.00;98485.41;5026281;28;20565;-68
2022/04/07 06:07:06;;;;;;;;;;;;;;;8.25;100.00;98471.72;5034802;28;20038;-69
2022/04/07 06:09:33;;;;;;;;;;;;;;;8.05;100.00;98470.03;5031196;28;19921;-68
2022/04/07 06:11:58;;;;;;;;;;;;;;;8.04;100.00;98467.47;5029542;28;19928;-68
2022/04/07 06:14:23;;;;;;;;;;;;;;;8.12;100.00;98476.00;5029111;28;19925;-68
2022/04/07 06:16:49;;;;;;;;;;;;;;;8.13;100.00;98462.38;5028055;28;20309;-69
2022/04/07 06:19:14;;;;;;;;;;;;;;;8.09;100.00;98444.47;5030683;28;19921;-68
2022/04/07 06:21:39;;;;;;;;;;;;;;;8.06;100.00;98443.59;5036505;28;19921;-68
2022/04/07 06:24:05;;;;;;;;;;;;;;;8.13;100.00;98438.47;5029680;28;19933;-68
2022/04/07 06:26:30;;;;;;;;;;;;;;;8.07;100.00;98437.63;5031370;28;19929;-69
2022/04/07 06:28:55;;;;;;;;;;;;;;;8.02;100.00;98426.53;5032941;28;20416;-69
2022/04/07 06:31:20;;;;;;;;;;;;;;;7.96;100.00;98418.88;5033072;28;19921;-69
2022/04/07 06:33:46;;;;;;;;;;;;;;;7.83;100.00;98419.72;5029954;28;20011;-69
2022/04/07 06:36:11;;;;;;;;;;;;;;;8.04;100.00;98424.81;5027529;28;19944;-69
2022/04/07 06:38:36;;;;;;;;;;;;;;;8.10;100.00;98402.66;5036287;28;20524;-69
2022/04/07 06:41:01;;;;;;;;;;;;;;;7.92;100.00;98396.69;5031614;28;20000;-70
2022/04/07 06:43:27;;;;;;;;;;;;;;;7.92;100.00;98385.59;5029993;28;19925;-69
2022/04/07 06:45:53;;;;;;;;;;;;;;;8.02;100.00;98366.84;5029988;28;19917;-69
2022/04/07 06:48:18;;;;;;;;;;;;;;;8.03;100.00;98365.97;5030910;28;20373;-69
2022/04/07 06:50:46;;;;;;;;;;;;;;;7.95;100.00;98355.75;5030582;28;19928;-69
2022/04/07 06:53:12;;;;;;;;;;;;;;;8.05;100.00;98351.44;5036731;28;19976;-69
2022/04/07 06:55:37;;;;;;;;;;;;;;;8.10;100.00;98344.63;5027474;28;19934;-69
2022/04/07 06:58:04;;;;;;;;;;;;;;;7.99;100.00;98344.63;5028602;28;20011;-69
2022/04/07 07:00:31;;;;;;;;;;;;;;;8.09;100.00;98332.69;5023983;28;20012;-70
2022/04/07 07:02:57;;;;;;;;;;;;;;;8.16;100.00;98315.59;5030337;28;19921;-71
2022/04/07 07:05:26;;;;;;;;;;;;;;;8.22;100.00;98321.56;5033787;28;19925;-70
2022/04/07 07:07:52;;;;;;;;;;;;;;;8.13;100.00;98313.03;5028749;28;20007;-70
2022/04/07 07:10:21;;;;;;;;;;;;;;;8.00;100.00;98314.78;5036384;28;20047;-71
2022/04/07 07:12:47;;;;;;;;;;;;;;;8.10;100.00;98302.81;5028460;28;20381;-71
2022/04/07 07:15:13;;;;;;;;;;;;;;;8.05;100.00;98295.16;5030100;28;19926;-72
2022/04/07 07:17:39;;;;;;;;;;;;;;;8.18;100.00;98278.91;5029420;28;20395;-72
2022/04/07 07:20:07;;;;;;;;;;;;;;;8.00;100.00;98276.41;5033262;28;19924;-72
2022/04/07 07:22:32;;;;;;;;;;;;;;;7.98;100.00;98268.72;5028060;28;19922;-71
2022/04/07 07:24:58;;;;;;;;;;;;;;;7.92;100.00;98267.91;5027554;28;19967;-71
2022/04/07 07:27:23;;;;;;;;;;;;;;;7.89;100.00;98296.91;5043746;28;19925;-71
2022/04/07 07:29:49;;;;;;;;;;;;;;;7.80;100.00;98315.69;5026958;28;20027;-71
2022/04/07 07:32:14;;;;;;;;;;;;;;;7.82;100.00;98343.81;5012887;28;19992;-71
2022/04/07 07:34:39;;;;;;;;;;;;;;;7.60;100.00;98352.38;5032334;28;19982;-72
2022/04/07 07:37:05;;;;;;;;;;;;;;;7.15;100.00;98319.09;5032251;28;20002;-71
2022/04/07 07:39:30;;;;;;;;;;;;;;;6.81;100.00;98364.19;5034326;28;19921;-71
2022/04/07 07:41:55;;;;;;;;;;;;;;;6.58;100.00;98337.72;5028506;28;20646;-71
2022/04/07 07:44:20;;;;;;;;;;;;;;;6.56;100.00;98301.97;5025835;28;19940;-71
2022/04/07 07:46:46;;;;;;;;;;;;;;;6.40;100.00;98341.91;5028804;28;19921;-71
2022/04/07 07:49:11;;;;;;;;;;;;;;;6.34;100.00;98364.00;5029643;28;19929;-72
2022/04/07 07:51:37;;;;;;;;;;;;;;;6.23;100.00;98414.97;5029661;28;19921;-71
2022/04/07 07:54:03;;;;;;;;;;;;;;;6.13;100.00;98415.78;5027379;28;19929;-72
2022/04/07 07:56:28;;;;;;;;;;;;;;;6.05;100.00;98415.69;5030922;28;21618;-72
2022/04/07 07:58:54;;;;;;;;;;;;;;;6.01;100.00;98408.03;5026525;28;19933;-72
2022/04/07 08:01:19;;;;;;;;;;;;;;;5.98;100.00;98403.75;5035317;28;19960;-72
2022/04/07 08:03:44;;;;;;;;;;;;;;;5.95;100.00;98373.13;5056841;28;20304;-72
2022/04/07 08:06:09;;;;;;;;;;;;;;;5.94;100.00;98371.41;5026138;28;19971;-72
2022/04/07 08:08:35;;;;;;;;;;;;;;;5.94;100.00;98370.56;5032590;28;19917;-72
2022/04/07 08:11:00;;;;;;;;;;;;;;;5.95;100.00;98370.59;5030502;28;19944;-72
2022/04/07 08:13:25;;;;;;;;;;;;;;;6.00;100.00;98366.34;5034816;28;19924;-72
2022/04/07 08:15:50;;;;;;;;;;;;;;;6.05;100.00;98363.81;5028864;28;20111;-71
2022/04/07 08:18:17;;;;;;;;;;;;;;;6.08;100.00;98346.84;5028874;28;19967;-72
2022/04/07 08:20:42;;;;;;;;;;;;;;;6.12;100.00;98357.91;5025881;28;20389;-72
2022/04/07 08:23:08;;;;;;;;;;;;;;;6.17;100.00;98362.19;5027573;28;19929;-72
2022/04/07 08:25:33;;;;;;;;;;;;;;;6.34;100.00;98382.72;5031619;28;20356;-73
2022/04/07 08:27:58;;;;;;;;;;;;;;;6.44;100.00;98368.31;5027726;28;20278;-72
2022/04/07 08:30:24;;;;;;;;;;;;;;;6.59;100.00;98368.34;5036184;28;19931;-72
2022/04/07 08:32:49;;;;;;;;;;;;;;;6.81;100.00;98351.41;5027588;28;19932;-72
2022/04/07 08:35:14;;;;;;;;;;;;;;;6.87;100.00;98342.91;5026720;28;19925;-71
2022/04/07 08:37:39;;;;;;;;;;;;;;;6.95;100.00;98357.41;5026262;28;19917;-71
2022/04/07 08:40:07;;;;;;;;;;;;;;;7.30;100.00;98355.78;5057219;28;19948;-71
2022/04/07 08:42:33;;;;;;;;;;;;;;;7.80;100.00;98348.09;5027421;28;19921;-71
2022/04/07 08:44:58;;;;;;;;;;;;;;;7.92;100.00;98352.34;5036365;28;19952;-71
2022/04/07 08:47:24;;;;;;;;;;;;;;;7.84;100.00;98354.91;5026259;28;19952;-72
2022/04/07 08:49:50;;;;;;;;;;;;;;;7.96;100.00;98331.03;5032414;28;19917;-72
2022/04/07 08:52:15;;;;;;;;;;;;;;;8.09;100.00;98344.63;5031663;28;19913;-72
2022/04/07 08:54:42;;;;;;;;;;;;;;;8.32;100.00;98336.03;5026298;28;19932;-71
2022/04/07 08:57:08;;;;;;;;;;;;;;;9.81;100.00;98332.56;5030446;28;19932;-72
2022/04/07 08:59:34;;;;;;;;;;;;;;;10.90;98.60;98340.75;5035748;28;19913;-72
2022/04/07 09:02:03;;;;;;;;;;;;;;;11.20;100.00;98334.31;5027553;28;19955;-72
2022/04/07 09:04:36;;;;;;;;;;;;;;;11.62;nan;98342.25;5061954;28;19921;-72
2022/04/07 09:07:02;;;;;;;;;;;;;;;11.81;93.03;98347.97;5023147;28;20442;-72
2022/04/07 09:09:30;;;;;;;;;;;;;;;11.40;90.14;98346.88;5025141;28;20015;-72
2022/04/07 09:11:55;;;;;;;;;;;;;;;11.65;91.26;98354.19;5027112;28;19947;-73
2022/04/07 09:14:20;;;;;;;;;;;;;;;13.40;83.25;98344.75;5062757;28;19925;-72
2022/04/07 09:16:46;;;;;;;;;;;;;;;14.31;79.29;98336.41;5027917;28;19925;-72
2022/04/07 09:19:13;;;;;;;;;;;;;;;13.98;78.73;98340.75;5026677;28;19921;-72
2022/04/07 09:21:38;;;;;;;;;;;;;;;15.11;75.08;98350.53;5026046;28;20007;-72
2022/04/07 09:24:07;;;;;;;;;;;;;;;15.96;66.74;98346.13;5026853;28;20492;-71
2022/04/07 09:26:36;;;;;;;;;;;;;;;16.88;62.76;98351.50;5026885;28;19925;-71
2022/04/07 09:29:09;;;;;;;;;;;;;;;17.10;66.22;98357.56;5033071;28;20016;-72
2022/04/07 09:31:39;;;;;;;;;;;;;;;18.37;63.64;98354.16;5030631;28;19940;-72
2022/04/07 09:34:04;;;;;;;;;;;;;;;18.07;59.54;98336.34;5024503;28;19921;-72
2022/04/07 09:36:29;;;;;;;;;;;;;;;17.46;61.06;98363.97;5026611;28;19983;-72
2022/04/07 09:38:55;;;;;;;;;;;;;;;16.63;58.58;98356.72;5026109;28;19936;-71
2022/04/07 09:41:21;;;;;;;;;;;;;;;16.23;62.36;98367.66;5014758;28;19932;-72
2022/04/07 09:43:50;;;;;;;;;;;;;;;15.97;62.76;98358.19;5026005;28;19917;-71
2022/04/07 09:46:20;;;;;;;;;;;;;;;15.26;61.50;98346.63;5060295;28;19925;-71
2022/04/07 09:48:58;;;;;;;;;;;;;;;14.62;60.38;98374.38;5027775;28;19920;-71
2022/04/07 09:51:24;;;;;;;;;;;;;;;14.66;59.32;98330.28;5030778;28;19917;-71
2022/04/07 09:53:50;;;;;;;;;;;;;;;16.06;59.66;98337.97;5013320;28;19972;-71
2022/04/07 09:56:16;;;;;;;;;;;;;;;16.84;54.85;98358.56;5029202;28;19925;-71
2022/04/07 09:58:41;;;;;;;;;;;;;;;17.06;53.92;98358.59;5030593;28;19967;-71
2022/04/07 10:01:07;;;;;;;;;;;;;;;15.90;52.11;98361.88;5030188;28;19968;-71
2022/04/07 10:03:32;;;;;;;;;;;;;;;15.26;54.57;98365.59;5033155;28;19921;-71
2022/04/07 10:05:58;;;;;;;;;;;;;;;15.28;55.48;98352.59;5032068;28;19925;-71
2022/04/07 10:08:24;;;;;;;;;;;;;;;16.44;53.42;98361.72;5033222;28;20412;-71
2022/04/07 10:10:50;;;;;;;;;;;;;;;16.87;50.71;98349.81;5031613;28;20015;-71
2022/04/07 10:13:15;;;;;;;;;;;;;;;16.82;47.59;98378.53;5031235;28;20429;-71
2022/04/07 10:15:42;;;;;;;;;;;;;;;16.31;47.72;98395.00;5025866;28;20396;-71
2022/04/07 10:18:12;;;;;;;;;;;;;;;16.97;48.37;98371.06;5027231;28;19929;-71
2022/04/07 10:20:39;;;;;;;;;;;;;;;17.43;47.22;98360.59;5027349;28;19967;-71
2022/04/07 10:23:16;;;;;;;;;;;;;;;17.98;47.87;98365.34;5028751;28;19927;-70
2022/04/07 10:25:43;;;;;;;;;;;;;;;17.07;48.41;98378.47;5029057;28;19923;-70
2022/04/07 10:28:10;;;;;;;;;;;;;;;16.13;52.65;98380.06;5028648;28;19924;-71
2022/04/07 10:30:51;;;;;;;;;;;;;;;16.18;49.88;98375.59;5027198;28;19924;-70
2022/04/07 10:33:36;;;;;;;;;;;;;;;16.97;50.91;98384.06;5027681;28;19979;-70
2022/04/07 10:36:06;;;;;;;;;;;;;;;17.99;45.31;98384.41;5027189;28;20354;-70
2022/04/07 10:38:36;;;;;;;;;;;;;;;17.03;48.97;98389.00;5034280;28;20427;-71
2022/04/07 10:41:02;;;;;;;;;;;;;;;15.47;45.99;98410.72;5029884;28;19932;-70
2022/04/07 10:43:27;;;;;;;;;;;;;;;14.78;50.88;98411.88;5030299;28;20300;-71
2022/04/07 10:46:19;;;;;;;;;;;;;;;14.56;48.93;98416.81;5025239;28;19925;-69
2022/04/07 10:48:44;;;;;;;;;;;;;;;16.25;47.20;98433.25;5030752;28;19975;-70
2022/04/07 10:51:10;;;;;;;;;;;;;;;17.61;41.40;98430.94;5029147;28;19917;-69
2022/04/07 10:53:59;;;;;;;;;;;;;;;17.04;41.82;98427.03;5029251;28;19924;-70
2022/04/07 10:56:34;;;;;;;;;;;;;;;16.34;45.24;98439.00;5033386;28;20281;-70
2022/04/07 10:59:19;;;;;;;;;;;;;;;16.71;47.24;98444.69;5031320;28;19920;-70
2022/04/07 11:01:47;;;;;;;;;;;;;;;16.27;46.10;98441.88;5033332;28;19928;-70
2022/04/07 11:04:18;;;;;;;;;;;;;;;15.99;45.78;98444.50;5034621;28;19943;-70
2022/04/07 11:07:02;;;;;;;;;;;;;;;15.03;46.90;98450.84;5025970;28;19921;-70
2022/04/07 11:09:39;;;;;;;;;;;;;;;14.17;49.03;98468.59;5027007;28;19917;-69
2022/04/07 11:12:08;;;;;;;;;;;;;;;13.65;52.80;98464.69;5025250;28;20361;-69
2022/04/07 11:14:33;;;;;;;;;;;;;;;14.48;51.13;98460.94;5031980;28;19951;-70
2022/04/07 11:17:00;;;;;;;;;;;;;;;14.79;50.03;98472.22;5027615;28;19929;-69
2022/04/07 11:19:34;;;;;;;;;;;;;;;14.04;49.68;98467.22;5024758;28;20313;-70
2022/04/07 11:22:09;;;;;;;;;;;;;;;13.41;51.57;98473.81;5036768;28;20399;-70
2022/04/07 11:24:41;;;;;;;;;;;;;;;12.92;53.70;98471.34;5034469;28;20399;-69
2022/04/07 11:27:25;;;;;;;;;;;;;;;12.41;55.55;98486.06;5034845;28;19960;-69
2022/04/07 11:30:03;;;;;;;;;;;;;;;12.01;58.42;98489.25;5030057;28;19960;-69
2022/04/07 11:32:28;;;;;;;;;;;;;;;11.82;59.71;98494.69;5031300;28;19971;-69
2022/04/07 11:34:54;;;;;;;;;;;;;;;11.58;59.27;98515.59;5034307;28;19960;-70
2022/04/07 11:37:19;;;;;;;;;;;;;;;11.55;60.35;98515.66;5030813;28;19921;-70
2022/04/07 11:39:46;;;;;;;;;;;;;;;11.62;59.19;98531.88;5028740;28;19921;-70
2022/04/07 11:42:13;;;;;;;;;;;;;;;11.49;58.62;98516.59;5030351;28;20317;-69
2022/04/07 11:44:38;;;;;;;;;;;;;;;11.25;61.11;98517.75;5032290;28;19921;-69
2022/04/07 11:47:19;;;;;;;;;;;;;;;10.94;61.15;98529.25;5031405;28;19944;-69
2022/04/07 11:49:45;;;;;;;;;;;;;;;10.84;63.77;98548.22;5029213;28;20331;-70
2022/04/07 11:52:10;;;;;;;;;;;;;;;10.91;62.71;98548.13;5032908;28;20008;-69
2022/04/07 11:54:36;;;;;;;;;;;;;;;10.86;62.29;98531.03;5029484;28;20028;-70
2022/04/07 11:57:01;;;;;;;;;;;;;;;10.56;63.13;98548.50;5029770;28;19948;-71
2022/04/07 11:59:34;;;;;;;;;;;;;;;10.46;64.23;98554.56;5027197;28;20251;-69
2022/04/07 12:01:59;;;;;;;;;;;;;;;10.56;62.28;98560.50;5023094;28;20419;-70
2022/04/07 12:04:29;;;;;;;;;;;;;;;10.49;62.05;98559.66;5030284;28;19921;-70
2022/04/07 12:06:55;;;;;;;;;;;;;;;10.48;63.58;98565.66;5032063;28;19922;-70
2022/04/07 12:09:20;;;;;;;;;;;;;;;10.61;62.71;98554.41;5032465;28;19921;-70
2022/04/07 12:11:46;;;;;;;;;;;;;;;10.71;62.62;98544.91;5020822;28;19918;-71
2022/04/07 12:14:15;;;;;;;;;;;;;;;10.62;62.90;98560.44;5026046;28;19926;-71
2022/04/07 12:16:47;;;;;;;;;;;;;;;10.79;61.83;98562.81;5059035;28;19921;-71
2022/04/07 12:19:12;;;;;;;;;;;;;;;10.77;61.74;98567.13;5037830;28;20012;-71
2022/04/07 12:21:50;;;;;;;;;;;;;;;11.00;60.77;98540.34;5026759;28;20370;-70
2022/04/07 12:24:16;;;;;;;;;;;;;;;10.93;60.46;98576.41;5025781;28;20016;-71
2022/04/07 12:26:42;;;;;;;;;;;;;;;10.80;59.98;98579.94;5029131;28;20351;-71
2022/04/07 12:29:08;;;;;;;;;;;;;;;10.82;59.07;98584.22;5026705;28;19912;-70
2022/04/07 12:31:33;;;;;;;;;;;;;;;10.87;59.21;98576.47;5029061;28;20278;-71
2022/04/07 12:34:12;;;;;;;;;;;;;;;10.93;59.07;98579.00;5030012;28;19991;-70
2022/04/07 12:36:38;;;;;;;;;;;;;;;11.10;58.62;98595.09;5022839;28;20012;-70
2022/04/07 12:39:05;;;;;;;;;;;;;;;11.27;56.04;98592.34;5027477;28;20300;-70
2022/04/07 12:41:49;;;;;;;;;;;;;;;11.26;55.81;98591.47;5024586;28;19921;-70
2022/04/07 12:44:19;;;;;;;;;;;;;;;11.25;58.19;98576.06;5041264;28;20370;-71